createdAt,value
2017-09-07T00:01:38.594Z,13.30
2017-09-07T00:04:07.671Z,13.30
2017-09-07T00:06:36.059Z,13.20
2017-09-07T00:09:04.371Z,13.20
2017-09-07T00:11:32.914Z,13.20
2017-09-07T00:14:01.292Z,13.20
2017-09-07T00:16:29.670Z,13.10
2017-09-07T00:18:58.150Z,13.10
2017-09-07T00:21:26.631Z,13.00
2017-09-07T00:24:28.899Z,12.90
2017-09-07T00:26:57.958Z,12.90
2017-09-07T00:29:26.295Z,12.90
2017-09-07T00:31:54.631Z,12.90
2017-09-07T00:34:22.942Z,12.80
2017-09-07T00:36:51.268Z,12.80
2017-09-07T00:39:19.575Z,12.80
2017-09-07T00:41:48.975Z,12.80
2017-09-07T00:44:18.055Z,12.80
2017-09-07T00:46:46.363Z,12.70
2017-09-07T00:49:14.682Z,12.80
2017-09-07T00:51:42.994Z,12.80
2017-09-07T00:54:12.099Z,12.70
2017-09-07T00:56:40.441Z,12.70
2017-09-07T00:59:08.865Z,12.70
2017-09-07T01:01:37.315Z,12.70
2017-09-07T01:04:05.594Z,12.70
2017-09-07T01:06:33.915Z,12.80
2017-09-07T01:09:02.218Z,12.70
2017-09-07T01:11:30.653Z,12.70
2017-09-07T01:13:58.959Z,12.80
2017-09-07T01:16:27.294Z,12.80
2017-09-07T01:18:55.615Z,12.80
2017-09-07T01:21:23.960Z,12.80
2017-09-07T01:23:53.056Z,12.80
2017-09-07T01:26:21.526Z,12.70
2017-09-07T01:28:50.608Z,12.80
2017-09-07T01:31:18.909Z,12.70
2017-09-07T01:33:48.106Z,12.80
2017-09-07T01:36:17.175Z,12.80
2017-09-07T01:38:45.505Z,12.80
2017-09-07T01:41:13.851Z,12.80
2017-09-07T01:43:43.146Z,12.90
2017-09-07T01:46:12.247Z,12.90
2017-09-07T01:48:45.530Z,12.80
2017-09-07T01:51:14.626Z,12.90
2017-09-07T01:53:43.722Z,12.90
2017-09-07T01:56:12.799Z,12.90
2017-09-07T01:58:41.091Z,12.90
2017-09-07T02:01:10.191Z,12.80
2017-09-07T02:03:38.517Z,12.80
2017-09-07T02:06:07.247Z,12.80
2017-09-07T02:08:35.566Z,12.70
2017-09-07T02:11:03.891Z,12.70
2017-09-07T02:13:32.214Z,12.70
2017-09-07T02:16:00.506Z,12.60
2017-09-07T02:18:28.840Z,12.60
2017-09-07T02:20:57.914Z,12.50
2017-09-07T02:23:27.034Z,12.50
2017-09-07T02:25:56.109Z,12.40
2017-09-07T02:28:24.427Z,12.40
2017-09-07T02:30:52.768Z,12.40
2017-09-07T02:33:21.972Z,12.50
2017-09-07T02:35:51.067Z,12.50
2017-09-07T02:38:20.359Z,12.40
2017-09-07T02:40:49.442Z,12.50
2017-09-07T02:43:17.743Z,12.50
2017-09-07T02:45:46.845Z,12.60
2017-09-07T02:48:15.151Z,12.60
2017-09-07T02:50:43.863Z,12.60
2017-09-07T02:53:12.874Z,12.70
2017-09-07T02:55:41.175Z,12.70
2017-09-07T02:58:10.257Z,12.90
2017-09-07T03:00:38.582Z,12.80
2017-09-07T03:03:06.911Z,13.00
2017-09-07T03:05:36.009Z,13.00
2017-09-07T03:08:05.308Z,13.00
2017-09-07T03:10:33.623Z,13.00
2017-09-07T03:13:01.957Z,13.00
2017-09-07T03:15:31.058Z,13.10
2017-09-07T03:17:59.543Z,13.10
2017-09-07T03:20:28.615Z,13.10
2017-09-07T03:22:57.703Z,13.10
2017-09-07T03:25:26.098Z,13.10
2017-09-07T03:27:55.169Z,13.10
2017-09-07T03:30:23.674Z,13.10
2017-09-07T03:32:52.731Z,13.20
2017-09-07T03:35:21.030Z,13.10
2017-09-07T03:37:49.341Z,13.20
2017-09-07T03:40:17.648Z,13.20
2017-09-07T03:42:46.188Z,13.20
2017-09-07T03:45:15.279Z,13.30
2017-09-07T03:47:44.343Z,13.30
2017-09-07T03:50:12.748Z,13.30
2017-09-07T03:52:41.845Z,13.30
2017-09-07T03:55:10.185Z,13.30
2017-09-07T03:57:38.492Z,13.30
2017-09-07T04:00:07.587Z,13.40
2017-09-07T04:02:35.898Z,13.30
2017-09-07T04:05:04.243Z,13.30
2017-09-07T04:07:32.566Z,13.40
2017-09-07T04:10:01.102Z,13.40
2017-09-07T04:12:30.166Z,13.40
2017-09-07T04:14:58.468Z,13.30
2017-09-07T04:17:27.558Z,13.30
2017-09-07T04:19:56.635Z,13.30
2017-09-07T04:22:25.044Z,13.20
2017-09-07T04:24:54.155Z,13.30
2017-09-07T04:27:23.224Z,13.30
2017-09-07T04:29:51.528Z,13.30
2017-09-07T04:32:19.881Z,13.40
2017-09-07T04:34:48.258Z,13.30
2017-09-07T04:37:16.740Z,13.30
2017-09-07T04:39:45.811Z,13.30
2017-09-07T04:42:14.104Z,13.30
2017-09-07T04:44:42.410Z,13.40
2017-09-07T04:47:10.776Z,13.30
2017-09-07T04:49:39.964Z,13.40
2017-09-07T04:52:08.250Z,13.30
2017-09-07T04:54:37.637Z,13.40
2017-09-07T04:57:06.704Z,13.40
2017-09-07T04:59:35.817Z,13.40
2017-09-07T05:02:04.210Z,13.30
2017-09-07T05:04:32.587Z,13.40
2017-09-07T05:07:00.965Z,13.40
2017-09-07T05:09:30.056Z,13.40
2017-09-07T05:11:59.157Z,13.50
2017-09-07T05:14:28.266Z,13.50
2017-09-07T05:16:57.138Z,13.40
2017-09-07T05:19:26.239Z,13.50
2017-09-07T05:21:55.333Z,13.50
2017-09-07T05:24:24.419Z,13.40
2017-09-07T05:26:53.670Z,13.40
2017-09-07T05:29:22.217Z,13.40
2017-09-07T05:31:51.274Z,13.40
2017-09-07T05:34:20.415Z,13.40
2017-09-07T05:36:49.507Z,13.50
2017-09-07T05:39:17.826Z,13.50
2017-09-07T05:41:46.240Z,13.50
2017-09-07T05:44:15.315Z,13.60
2017-09-07T05:46:43.762Z,13.50
2017-09-07T05:49:12.071Z,13.60
2017-09-07T05:51:40.367Z,13.60
2017-09-07T05:54:08.683Z,13.70
2017-09-07T05:56:36.977Z,13.80
2017-09-07T05:59:05.351Z,13.90
2017-09-07T06:01:33.648Z,13.90
2017-09-07T06:04:02.240Z,13.90
2017-09-07T06:06:30.535Z,14.00
2017-09-07T06:08:59.623Z,14.10
2017-09-07T06:11:28.707Z,14.20
2017-09-07T06:13:57.186Z,14.10
2017-09-07T06:16:25.486Z,14.20
2017-09-07T06:18:54.558Z,14.30
2017-09-07T06:21:23.659Z,14.20
2017-09-07T06:23:51.987Z,14.20
2017-09-07T06:26:20.314Z,14.20
2017-09-07T06:28:48.597Z,14.30
2017-09-07T06:31:17.950Z,14.40
2017-09-07T06:33:46.262Z,14.40
2017-09-07T06:36:15.349Z,14.60
2017-09-07T06:38:43.670Z,14.50
2017-09-07T06:41:11.980Z,14.60
2017-09-07T06:43:40.411Z,14.60
2017-09-07T06:46:09.479Z,14.60
2017-09-07T06:48:37.778Z,14.60
2017-09-07T06:51:06.870Z,14.70
2017-09-07T06:53:35.977Z,14.80
2017-09-07T06:56:05.068Z,14.80
2017-09-07T06:58:33.382Z,14.80
2017-09-07T07:01:01.735Z,14.90
2017-09-07T07:03:30.069Z,14.80
2017-09-07T07:05:59.182Z,14.90
2017-09-07T07:08:28.243Z,14.90
2017-09-07T07:10:56.824Z,14.90
2017-09-07T07:13:25.194Z,15.00
2017-09-07T07:15:53.488Z,15.00
2017-09-07T07:18:21.809Z,15.20
2017-09-07T07:20:50.113Z,15.40
2017-09-07T07:23:18.858Z,15.50
2017-09-07T07:25:47.173Z,15.50
2017-09-07T07:28:15.468Z,15.60
2017-09-07T07:30:43.792Z,15.70
2017-09-07T07:33:12.857Z,15.60
2017-09-07T07:35:41.170Z,15.50
2017-09-07T07:38:09.485Z,15.60
2017-09-07T07:40:37.815Z,15.70
2017-09-07T07:43:06.120Z,15.90
2017-09-07T07:45:34.485Z,15.90
2017-09-07T07:48:03.542Z,16.00
2017-09-07T07:50:32.643Z,16.10
2017-09-07T07:53:01.719Z,16.20
2017-09-07T07:55:30.166Z,16.10
2017-09-07T07:57:58.485Z,16.30
2017-09-07T08:00:26.762Z,16.30
2017-09-07T08:02:55.078Z,16.50
2017-09-07T08:05:23.423Z,16.50
2017-09-07T08:07:51.744Z,16.50
2017-09-07T08:10:20.052Z,16.50
2017-09-07T08:12:48.367Z,16.50
2017-09-07T08:15:17.438Z,16.40
2017-09-07T08:17:46.022Z,16.30
2017-09-07T08:20:14.324Z,16.30
2017-09-07T08:22:42.654Z,16.30
2017-09-07T08:25:10.971Z,16.30
2017-09-07T08:27:39.291Z,16.30
2017-09-07T08:30:07.618Z,16.30
2017-09-07T08:32:36.687Z,16.50
2017-09-07T08:35:05.014Z,16.40
2017-09-07T08:37:33.316Z,16.50
2017-09-07T08:40:01.898Z,16.50
2017-09-07T08:42:30.182Z,16.60
2017-09-07T08:44:58.499Z,16.60
2017-09-07T08:47:26.826Z,16.80
2017-09-07T08:49:55.122Z,16.80
2017-09-07T08:52:23.456Z,16.90
2017-09-07T08:54:51.762Z,17.00
2017-09-07T08:57:20.083Z,17.10
2017-09-07T08:59:48.428Z,17.00
2017-09-07T09:02:16.735Z,17.00
2017-09-07T09:04:45.839Z,16.90
2017-09-07T09:07:14.942Z,17.00
2017-09-07T09:09:44.251Z,17.10
2017-09-07T09:12:13.361Z,17.20
2017-09-07T09:14:41.688Z,17.10
2017-09-07T09:17:10.010Z,17.20
2017-09-07T09:19:38.298Z,17.30
2017-09-07T09:22:06.622Z,17.30
2017-09-07T09:24:34.914Z,17.10
2017-09-07T09:27:03.235Z,17.00
2017-09-07T09:29:31.538Z,17.10
2017-09-07T09:31:59.862Z,17.20
2017-09-07T09:34:28.163Z,17.10
2017-09-07T09:36:56.598Z,17.20
2017-09-07T09:39:25.663Z,17.70
2017-09-07T09:41:53.956Z,17.60
2017-09-07T09:44:22.278Z,17.80
2017-09-07T09:46:50.573Z,17.80
2017-09-07T09:49:18.998Z,17.60
2017-09-07T09:51:48.080Z,16.70
2017-09-07T09:54:16.362Z,16.70
2017-09-07T09:56:48.020Z,16.60
2017-09-07T09:59:16.298Z,16.50
2017-09-07T10:01:45.526Z,16.50
2017-09-07T10:04:13.814Z,16.50
2017-09-07T10:06:42.123Z,16.70
2017-09-07T10:09:10.435Z,16.80
2017-09-07T10:11:39.482Z,17.10
2017-09-07T10:14:07.830Z,17.10
2017-09-07T10:16:36.541Z,17.30
2017-09-07T10:19:04.978Z,17.30
2017-09-07T10:21:33.365Z,17.30
2017-09-07T10:24:01.666Z,17.30
2017-09-07T10:26:29.987Z,17.30
2017-09-07T10:28:59.065Z,17.50
2017-09-07T10:31:28.293Z,17.40
2017-09-07T10:33:57.347Z,17.50
2017-09-07T10:36:25.642Z,17.50
2017-09-07T10:38:53.961Z,17.60
2017-09-07T10:41:22.262Z,17.80
2017-09-07T10:43:50.601Z,18.00
2017-09-07T10:46:18.914Z,18.20
2017-09-07T10:48:47.303Z,18.30
2017-09-07T10:51:15.599Z,18.30
2017-09-07T10:53:44.697Z,18.50
2017-09-07T10:56:13.772Z,18.70
2017-09-07T10:58:42.407Z,18.60
2017-09-07T11:01:10.729Z,18.80
2017-09-07T11:03:39.018Z,18.70
2017-09-07T11:06:07.355Z,18.70
2017-09-07T11:08:35.659Z,18.60
2017-09-07T11:11:04.100Z,18.40
2017-09-07T11:13:32.399Z,18.10
2017-09-07T11:16:00.738Z,18.20
2017-09-07T11:18:29.810Z,18.30
2017-09-07T11:20:58.095Z,18.30
2017-09-07T11:23:27.175Z,18.30
2017-09-07T11:25:55.483Z,18.30
2017-09-07T11:28:23.799Z,18.40
2017-09-07T11:30:52.102Z,18.50
2017-09-07T11:33:20.419Z,18.50
2017-09-07T11:35:48.739Z,18.60
2017-09-07T11:38:17.048Z,18.90
2017-09-07T11:40:45.439Z,19.10
2017-09-07T11:43:13.744Z,19.20
2017-09-07T11:45:42.029Z,19.20
2017-09-07T11:48:10.339Z,18.80
2017-09-07T11:50:39.684Z,18.50
2017-09-07T11:53:08.083Z,18.40
2017-09-07T11:55:36.395Z,18.30
2017-09-07T11:58:04.695Z,18.10
2017-09-07T12:00:33.031Z,18.00
2017-09-07T12:03:01.348Z,18.10
2017-09-07T12:05:29.679Z,18.10
2017-09-07T12:07:58.007Z,18.20
2017-09-07T12:10:26.450Z,18.20
2017-09-07T12:12:55.555Z,18.40
2017-09-07T12:15:24.637Z,18.60
2017-09-07T12:17:52.964Z,18.50
2017-09-07T12:20:21.265Z,18.80
2017-09-07T12:22:49.575Z,19.10
2017-09-07T12:25:17.875Z,19.20
2017-09-07T12:27:46.956Z,19.40
2017-09-07T12:30:16.030Z,19.70
2017-09-07T12:32:45.248Z,19.80
2017-09-07T12:35:14.325Z,19.60
2017-09-07T12:37:43.408Z,19.50
2017-09-07T12:40:11.733Z,19.40
2017-09-07T12:42:40.793Z,19.10
2017-09-07T12:45:09.170Z,19.10
2017-09-07T12:47:37.699Z,19.20
2017-09-07T12:50:06.763Z,19.20
2017-09-07T12:52:35.050Z,19.10
2017-09-07T12:55:03.475Z,19.10
2017-09-07T12:57:31.750Z,18.90
2017-09-07T13:00:00.033Z,18.70
2017-09-07T13:02:28.368Z,18.60
2017-09-07T13:04:56.674Z,18.70
2017-09-07T13:07:24.996Z,18.70
2017-09-07T13:09:53.287Z,18.60
2017-09-07T13:12:22.379Z,18.50
2017-09-07T13:14:51.443Z,18.70
2017-09-07T13:17:19.860Z,18.60
2017-09-07T13:19:48.175Z,18.80
2017-09-07T13:22:16.495Z,18.90
2017-09-07T13:24:45.597Z,18.30
2017-09-07T13:27:14.662Z,17.70
2017-09-07T13:29:43.754Z,17.20
2017-09-07T13:32:12.046Z,17.20
2017-09-07T13:34:40.459Z,16.40
2017-09-07T13:37:08.758Z,16.10
2017-09-07T13:39:37.055Z,15.80
2017-09-07T13:42:05.373Z,15.80
2017-09-07T13:44:34.435Z,15.40
2017-09-07T13:47:02.765Z,15.30
2017-09-07T13:49:31.063Z,15.30
2017-09-07T13:51:59.367Z,15.20
2017-09-07T13:54:27.650Z,15.00
2017-09-07T13:56:55.972Z,14.90
2017-09-07T13:59:24.276Z,14.90
2017-09-07T14:01:52.617Z,15.00
2017-09-07T14:04:21.666Z,15.10
2017-09-07T14:06:50.275Z,15.10
2017-09-07T14:09:19.338Z,15.40
2017-09-07T14:11:47.634Z,15.40
2017-09-07T14:14:15.960Z,15.50
2017-09-07T14:16:44.252Z,15.70
2017-09-07T14:19:12.575Z,15.90
2017-09-07T14:21:41.634Z,16.30
2017-09-07T14:24:09.959Z,16.30
2017-09-07T14:26:38.271Z,16.60
2017-09-07T14:29:06.599Z,16.90
2017-09-07T14:31:35.659Z,17.20
2017-09-07T14:34:04.691Z,17.10
2017-09-07T14:36:32.997Z,17.20
2017-09-07T14:39:01.303Z,17.30
2017-09-07T14:41:29.606Z,17.40
2017-09-07T14:43:57.895Z,17.30
2017-09-07T14:46:26.426Z,17.30
2017-09-07T14:48:54.711Z,17.20
2017-09-07T14:51:22.987Z,17.00
2017-09-07T14:53:51.312Z,16.90
2017-09-07T14:56:19.634Z,16.80
2017-09-07T14:58:47.930Z,16.70
2017-09-07T15:01:16.219Z,16.80
2017-09-07T15:03:49.114Z,17.00
2017-09-07T15:06:19.541Z,16.90
2017-09-07T15:08:48.940Z,17.20
2017-09-07T15:11:17.262Z,17.20
2017-09-07T15:13:45.590Z,17.20
2017-09-07T15:16:13.963Z,17.00
2017-09-07T15:18:42.319Z,16.70
2017-09-07T15:21:10.696Z,16.60
2017-09-07T15:23:39.236Z,16.30
2017-09-07T15:26:07.575Z,16.00
2017-09-07T15:28:35.892Z,15.60
2017-09-07T15:31:04.479Z,15.40
2017-09-07T15:33:32.791Z,15.20
2017-09-07T15:36:01.120Z,15.10
2017-09-07T15:38:30.200Z,15.10
2017-09-07T15:40:59.280Z,15.10
2017-09-07T15:43:27.623Z,15.10
2017-09-07T15:45:55.942Z,15.20
2017-09-07T15:48:24.631Z,15.20
2017-09-07T15:50:53.687Z,15.40
2017-09-07T15:53:22.001Z,15.40
2017-09-07T15:55:51.096Z,15.60
2017-09-07T15:58:20.185Z,15.70
2017-09-07T16:00:48.500Z,15.60
2017-09-07T16:03:16.819Z,15.70
2017-09-07T16:05:45.132Z,15.90
2017-09-07T16:08:13.440Z,15.90
2017-09-07T16:10:41.821Z,15.90
2017-09-07T16:13:10.111Z,15.90
2017-09-07T16:15:38.703Z,16.00
2017-09-07T16:18:07.019Z,16.10
2017-09-07T16:20:35.364Z,16.10
2017-09-07T16:23:03.704Z,16.20
2017-09-07T16:25:32.056Z,16.30
2017-09-07T16:28:00.402Z,16.30
2017-09-07T16:30:29.503Z,16.60
2017-09-07T16:32:58.607Z,16.70
2017-09-07T16:35:27.003Z,16.70
2017-09-07T16:37:56.200Z,16.90
2017-09-07T16:40:24.475Z,16.80
2017-09-07T16:42:52.841Z,16.90
2017-09-07T16:45:21.132Z,16.90
2017-09-07T16:47:49.702Z,16.90
2017-09-07T16:50:18.782Z,16.90
2017-09-07T16:52:47.091Z,16.80
2017-09-07T16:55:15.428Z,16.80
2017-09-07T16:57:43.717Z,16.80
2017-09-07T17:00:12.039Z,16.70
2017-09-07T17:02:40.356Z,16.80
2017-09-07T17:05:09.451Z,16.90
2017-09-07T17:07:37.863Z,16.80
2017-09-07T17:10:06.238Z,16.80
2017-09-07T17:12:34.609Z,16.80
2017-09-07T17:15:04.191Z,16.80
2017-09-07T17:17:32.690Z,16.70
2017-09-07T17:20:01.771Z,16.80
2017-09-07T17:22:30.078Z,16.70
2017-09-07T17:24:59.264Z,16.70
2017-09-07T17:27:28.350Z,16.80
2017-09-07T17:29:57.447Z,16.80
2017-09-07T17:32:26.543Z,16.80
2017-09-07T17:34:55.026Z,16.80
2017-09-07T17:37:24.100Z,16.70
2017-09-07T17:39:53.284Z,16.70
2017-09-07T17:42:21.699Z,16.60
2017-09-07T17:44:50.022Z,16.60
2017-09-07T17:47:18.563Z,16.50
2017-09-07T17:49:46.938Z,16.50
2017-09-07T17:52:15.534Z,16.30
2017-09-07T17:54:43.866Z,16.20
2017-09-07T17:57:12.277Z,16.10
2017-09-07T17:59:41.731Z,15.90
2017-09-07T18:02:10.368Z,15.80
2017-09-07T18:04:38.676Z,15.80
2017-09-07T18:07:07.021Z,15.80
2017-09-07T18:09:35.336Z,15.70
2017-09-07T18:12:03.783Z,15.70
2017-09-07T18:14:32.128Z,15.70
2017-09-07T18:17:00.424Z,15.70
2017-09-07T18:19:29.516Z,15.70
2017-09-07T18:21:58.627Z,15.70
2017-09-07T18:24:26.969Z,15.70
2017-09-07T18:26:56.756Z,15.60
2017-09-07T18:29:25.347Z,15.60
2017-09-07T18:31:53.671Z,15.60
2017-09-07T18:34:22.727Z,15.60
2017-09-07T18:36:51.839Z,15.60
2017-09-07T18:39:20.134Z,15.60
2017-09-07T18:41:48.632Z,15.60
2017-09-07T18:44:16.938Z,15.60
2017-09-07T18:46:45.236Z,15.60
2017-09-07T18:49:13.641Z,15.60
2017-09-07T18:51:42.716Z,15.40
2017-09-07T18:54:11.427Z,15.40
2017-09-07T18:56:40.492Z,15.30
2017-09-07T18:59:08.803Z,15.30
2017-09-07T19:01:37.196Z,15.20
2017-09-07T19:04:05.504Z,15.20
2017-09-07T19:06:33.827Z,15.10
2017-09-07T19:09:02.891Z,15.00
2017-09-07T19:11:31.399Z,14.90
2017-09-07T19:14:00.464Z,14.90
2017-09-07T19:16:28.768Z,14.90
2017-09-07T19:18:57.873Z,14.90
2017-09-07T19:21:26.187Z,14.80
2017-09-07T19:23:54.531Z,14.80
2017-09-07T19:26:23.600Z,14.80
2017-09-07T19:31:27.410Z,14.90
2017-09-07T19:33:55.812Z,14.80
2017-09-07T19:36:25.011Z,15.00
2017-09-07T19:38:53.489Z,14.90
2017-09-07T19:41:22.567Z,15.10
2017-09-07T19:43:50.875Z,15.00
2017-09-07T19:46:19.236Z,15.10
2017-09-07T19:51:22.986Z,15.20
2017-09-07T19:53:51.658Z,15.30
2017-09-07T19:56:20.001Z,15.40
2017-09-07T19:58:49.130Z,15.40
2017-09-07T20:01:17.501Z,15.40
2017-09-07T20:03:45.867Z,15.50
2017-09-07T20:06:15.173Z,15.50
2017-09-07T20:08:44.252Z,15.60
2017-09-07T20:11:13.576Z,15.60
2017-09-07T20:13:42.654Z,15.60
2017-09-07T20:16:11.018Z,15.60
2017-09-07T20:18:40.362Z,15.70
2017-09-07T20:21:09.304Z,15.60
2017-09-07T20:23:37.606Z,15.70
2017-09-07T20:26:05.931Z,15.70
2017-09-07T20:28:34.248Z,15.80
2017-09-07T20:31:03.575Z,15.80
2017-09-07T20:33:31.893Z,15.70
2017-09-07T20:36:00.216Z,15.80
2017-09-07T20:38:29.322Z,15.90
2017-09-07T20:40:58.403Z,15.90
2017-09-07T20:43:26.754Z,15.80
2017-09-07T20:45:55.859Z,15.90
2017-09-07T20:48:24.199Z,15.90
2017-09-07T20:50:52.519Z,15.90
2017-09-07T20:53:20.843Z,15.90
2017-09-07T20:55:49.200Z,15.90
2017-09-07T20:58:17.768Z,15.90
2017-09-07T21:00:46.090Z,15.90
2017-09-07T21:03:14.523Z,15.90
2017-09-07T21:05:42.875Z,15.90
2017-09-07T21:08:11.183Z,16.00
2017-09-07T21:10:39.527Z,16.00
2017-09-07T21:13:08.611Z,16.00
2017-09-07T21:15:37.180Z,16.00
2017-09-07T21:18:06.303Z,16.00
2017-09-07T21:20:35.397Z,16.00
2017-09-07T21:23:03.799Z,16.00
2017-09-07T21:25:32.181Z,16.10
2017-09-07T21:28:00.867Z,16.10
2017-09-07T21:30:30.352Z,16.10
2017-09-07T21:32:58.741Z,16.00
2017-09-07T21:35:27.085Z,16.00
2017-09-07T21:37:55.486Z,16.00
2017-09-07T21:40:24.814Z,16.00
2017-09-07T21:42:53.144Z,16.00
2017-09-07T21:45:22.242Z,16.10
2017-09-07T21:47:50.605Z,16.00
2017-09-07T21:50:18.914Z,16.10
2017-09-07T21:52:47.230Z,16.10
2017-09-07T21:55:15.547Z,16.10
2017-09-07T21:57:43.884Z,16.10
2017-09-07T22:00:12.179Z,16.10
2017-09-07T22:02:40.525Z,16.20
2017-09-07T22:05:08.881Z,16.20
2017-09-07T22:07:38.178Z,16.20
2017-09-07T22:10:07.275Z,16.10
2017-09-07T22:12:36.472Z,16.10
2017-09-07T22:15:05.672Z,16.00
2017-09-07T22:17:34.763Z,15.90
2017-09-07T22:20:03.868Z,15.80
2017-09-07T22:22:32.239Z,15.80
2017-09-07T22:25:00.725Z,15.80
2017-09-07T22:27:29.792Z,15.70
2017-09-07T22:29:58.191Z,15.70
2017-09-07T22:32:26.551Z,15.80
2017-09-07T22:34:54.843Z,15.70
2017-09-07T22:37:23.930Z,15.70
2017-09-07T22:39:52.985Z,15.70
2017-09-07T22:42:21.294Z,15.70
2017-09-07T22:44:49.579Z,15.70
2017-09-07T22:47:18.055Z,15.80
2017-09-07T22:49:46.391Z,15.80
2017-09-07T22:52:14.737Z,15.80
2017-09-07T22:54:43.067Z,15.80
2017-09-07T22:57:11.370Z,15.90
2017-09-07T22:59:40.779Z,15.90
2017-09-07T23:02:09.099Z,15.80
2017-09-07T23:04:37.403Z,15.90
2017-09-07T23:07:05.737Z,15.90
2017-09-07T23:09:34.054Z,15.90
2017-09-07T23:12:02.377Z,15.90
2017-09-07T23:14:30.743Z,15.90
2017-09-07T23:16:59.095Z,15.90
2017-09-07T23:19:27.819Z,15.90
2017-09-07T23:21:56.134Z,15.90
2017-09-07T23:24:24.541Z,15.90
2017-09-07T23:26:52.883Z,16.00
2017-09-07T23:29:21.339Z,16.00
2017-09-07T23:31:49.787Z,16.00
2017-09-07T23:34:18.123Z,16.00
2017-09-07T23:36:46.488Z,16.00
2017-09-07T23:39:14.781Z,16.00
2017-09-07T23:41:43.301Z,16.00
2017-09-07T23:44:11.678Z,16.00
2017-09-07T23:46:40.286Z,16.00
2017-09-07T23:49:08.614Z,16.00
2017-09-07T23:51:37.738Z,15.90
2017-09-07T23:54:06.833Z,15.90
2017-09-07T23:56:35.137Z,15.90
2017-09-07T23:59:03.583Z,15.90
